sensor_id;sensor_type;location;lat;lon;timestamp;P1;durP1;ratioP1;P2;durP2;ratioP2
64244;SDS011;50584;29.058;-110.966;2023-03-24T00:00:39;3.38;;;1.60;;
64244;SDS011;50584;29.058;-110.966;2023-03-24T00:03:04;5.32;;;1.00;;
64244;SDS011;50584;29.058;-110.966;2023-03-24T00:05:30;1.15;;;0.98;;
64244;SDS011;50584;29.058;-110.966;2023-03-24T00:07:56;4.55;;;0.70;;
64244;SDS011;50584;29.058;-110.966;2023-03-24T00:10:24;1.35;;;0.80;;
64244;SDS011;50584;29.058;-110.966;2023-03-24T00:12:50;4.03;;;0.80;;
64244;SDS011;50584;29.058;-110.966;2023-03-24T00:15:17;3.15;;;0.77;;
64244;SDS011;50584;29.058;-110.966;2023-03-24T00:17:44;6.72;;;0.95;;
64244;SDS011;50584;29.058;-110.966;2023-03-24T00:20:12;3.78;;;0.85;;
64244;SDS011;50584;29.058;-110.966;2023-03-24T00:22:43;3.78;;;0.73;;
64244;SDS011;50584;29.058;-110.966;2023-03-24T00:25:14;4.53;;;0.88;;
64244;SDS011;50584;29.058;-110.966;2023-03-24T00:27:40;1.60;;;0.90;;
64244;SDS011;50584;29.058;-110.966;2023-03-24T00:30:10;2.58;;;0.63;;
64244;SDS011;50584;29.058;-110.966;2023-03-24T00:32:36;7.57;;;1.00;;
64244;SDS011;50584;29.058;-110.966;2023-03-24T00:35:06;3.15;;;0.90;;
64244;SDS011;50584;29.058;-110.966;2023-03-24T00:37:37;13.18;;;1.45;;
64244;SDS011;50584;29.058;-110.966;2023-03-24T00:40:04;1.63;;;0.80;;
64244;SDS011;50584;29.058;-110.966;2023-03-24T00:42:33;6.13;;;1.48;;
64244;SDS011;50584;29.058;-110.966;2023-03-24T00:45:00;7.35;;;1.20;;
64244;SDS011;50584;29.058;-110.966;2023-03-24T00:47:28;2.30;;;0.95;;
64244;SDS011;50584;29.058;-110.966;2023-03-24T00:49:54;10.88;;;1.60;;
64244;SDS011;50584;29.058;-110.966;2023-03-24T00:52:22;3.20;;;1.10;;
64244;SDS011;50584;29.058;-110.966;2023-03-24T00:54:50;3.38;;;1.20;;
64244;SDS011;50584;29.058;-110.966;2023-03-24T00:57:17;16.67;;;2.13;;
64244;SDS011;50584;29.058;-110.966;2023-03-24T00:59:51;7.43;;;1.15;;
64244;SDS011;50584;29.058;-110.966;2023-03-24T01:02:18;15.68;;;1.67;;
64244;SDS011;50584;29.058;-110.966;2023-03-24T01:04:55;16.02;;;1.40;;
64244;SDS011;50584;29.058;-110.966;2023-03-24T01:07:25;7.15;;;1.05;;
64244;SDS011;50584;29.058;-110.966;2023-03-24T01:10:00;13.85;;;1.75;;
64244;SDS011;50584;29.058;-110.966;2023-03-24T01:12:27;18.23;;;2.40;;
64244;SDS011;50584;29.058;-110.966;2023-03-24T01:14:54;9.95;;;2.30;;
64244;SDS011;50584;29.058;-110.966;2023-03-24T01:17:21;9.73;;;2.08;;
64244;SDS011;50584;29.058;-110.966;2023-03-24T01:19:47;23.40;;;1.85;;
64244;SDS011;50584;29.058;-110.966;2023-03-24T01:22:13;12.60;;;1.40;;
64244;SDS011;50584;29.058;-110.966;2023-03-24T01:24:39;13.55;;;1.30;;
64244;SDS011;50584;29.058;-110.966;2023-03-24T01:27:05;8.10;;;1.20;;
64244;SDS011;50584;29.058;-110.966;2023-03-24T01:29:31;3.90;;;1.42;;
64244;SDS011;50584;29.058;-110.966;2023-03-24T01:31:56;8.55;;;1.55;;
64244;SDS011;50584;29.058;-110.966;2023-03-24T01:34:22;6.82;;;1.02;;
64244;SDS011;50584;29.058;-110.966;2023-03-24T01:36:49;9.35;;;2.15;;
64244;SDS011;50584;29.058;-110.966;2023-03-24T01:39:15;3.83;;;1.40;;
64244;SDS011;50584;29.058;-110.966;2023-03-24T01:41:41;10.90;;;1.70;;
64244;SDS011;50584;29.058;-110.966;2023-03-24T01:47:08;7.80;;;1.30;;
64244;SDS011;50584;29.058;-110.966;2023-03-24T01:49:36;5.78;;;1.00;;
64244;SDS011;50584;29.058;-110.966;2023-03-24T01:52:04;6.00;;;1.40;;
64244;SDS011;50584;29.058;-110.966;2023-03-24T01:54:32;3.63;;;1.40;;
64244;SDS011;50584;29.058;-110.966;2023-03-24T01:57:03;7.35;;;1.10;;
64244;SDS011;50584;29.058;-110.966;2023-03-24T01:59:32;8.02;;;1.10;;
64244;SDS011;50584;29.058;-110.966;2023-03-24T02:02:00;5.28;;;1.00;;
64244;SDS011;50584;29.058;-110.966;2023-03-24T02:04:30;19.73;;;1.40;;
64244;SDS011;50584;29.058;-110.966;2023-03-24T02:07:00;14.88;;;1.25;;
64244;SDS011;50584;29.058;-110.966;2023-03-24T02:09:28;8.07;;;1.40;;
64244;SDS011;50584;29.058;-110.966;2023-03-24T02:11:54;2.45;;;1.23;;
64244;SDS011;50584;29.058;-110.966;2023-03-24T02:14:20;6.82;;;1.30;;
64244;SDS011;50584;29.058;-110.966;2023-03-24T02:22:23;5.55;;;1.50;;
64244;SDS011;50584;29.058;-110.966;2023-03-24T02:25:08;8.27;;;1.30;;
64244;SDS011;50584;29.058;-110.966;2023-03-24T02:38:07;8.38;;;1.48;;
64244;SDS011;50584;29.058;-110.966;2023-03-24T02:43:25;10.80;;;1.13;;
64244;SDS011;50584;29.058;-110.966;2023-03-24T02:51:03;5.60;;;1.20;;
64244;SDS011;50584;29.058;-110.966;2023-03-24T02:53:31;10.35;;;1.92;;
64244;SDS011;50584;29.058;-110.966;2023-03-24T02:58:30;7.78;;;1.80;;
64244;SDS011;50584;29.058;-110.966;2023-03-24T03:01:01;12.88;;;1.95;;
64244;SDS011;50584;29.058;-110.966;2023-03-24T03:03:30;4.60;;;1.65;;
64244;SDS011;50584;29.058;-110.966;2023-03-24T03:06:32;21.20;;;3.08;;
64244;SDS011;50584;29.058;-110.966;2023-03-24T03:08:50;5.07;;;2.17;;
64244;SDS011;50584;29.058;-110.966;2023-03-24T03:11:17;8.25;;;2.17;;
64244;SDS011;50584;29.058;-110.966;2023-03-24T03:13:46;5.75;;;1.20;;
64244;SDS011;50584;29.058;-110.966;2023-03-24T03:16:15;4.05;;;1.48;;
64244;SDS011;50584;29.058;-110.966;2023-03-24T03:18:44;11.25;;;2.45;;
64244;SDS011;50584;29.058;-110.966;2023-03-24T03:21:15;6.03;;;1.45;;
64244;SDS011;50584;29.058;-110.966;2023-03-24T03:26:37;7.10;;;1.48;;
64244;SDS011;50584;29.058;-110.966;2023-03-24T03:29:04;4.88;;;1.50;;
64244;SDS011;50584;29.058;-110.966;2023-03-24T03:31:41;1.30;;;1.10;;
64244;SDS011;50584;29.058;-110.966;2023-03-24T03:36:39;2.17;;;1.00;;
64244;SDS011;50584;29.058;-110.966;2023-03-24T03:42:08;1.85;;;1.10;;
64244;SDS011;50584;29.058;-110.966;2023-03-24T03:44:34;2.72;;;1.13;;
64244;SDS011;50584;29.058;-110.966;2023-03-24T03:46:59;5.20;;;1.60;;
64244;SDS011;50584;29.058;-110.966;2023-03-24T03:49:25;6.80;;;1.27;;
64244;SDS011;50584;29.058;-110.966;2023-03-24T03:51:51;4.13;;;1.20;;
64244;SDS011;50584;29.058;-110.966;2023-03-24T03:54:19;7.05;;;1.00;;
64244;SDS011;50584;29.058;-110.966;2023-03-24T03:56:46;5.40;;;0.93;;
64244;SDS011;50584;29.058;-110.966;2023-03-24T04:02:30;4.50;;;0.98;;
64244;SDS011;50584;29.058;-110.966;2023-03-24T04:07:42;3.95;;;0.85;;
64244;SDS011;50584;29.058;-110.966;2023-03-24T04:15:49;4.25;;;1.10;;
64244;SDS011;50584;29.058;-110.966;2023-03-24T04:21:01;6.78;;;1.15;;
64244;SDS011;50584;29.058;-110.966;2023-03-24T04:34:35;6.90;;;1.20;;
64244;SDS011;50584;29.058;-110.966;2023-03-24T04:37:04;1.88;;;1.20;;
64244;SDS011;50584;29.058;-110.966;2023-03-24T04:39:34;2.40;;;1.10;;
64244;SDS011;50584;29.058;-110.966;2023-03-24T04:42:05;7.75;;;1.02;;
64244;SDS011;50584;29.058;-110.966;2023-03-24T04:44:32;2.85;;;1.13;;
64244;SDS011;50584;29.058;-110.966;2023-03-24T04:46:59;5.68;;;1.25;;
64244;SDS011;50584;29.058;-110.966;2023-03-24T04:49:26;2.80;;;1.23;;
64244;SDS011;50584;29.058;-110.966;2023-03-24T04:51:53;3.13;;;1.10;;
64244;SDS011;50584;29.058;-110.966;2023-03-24T04:54:19;3.38;;;1.38;;
64244;SDS011;50584;29.058;-110.966;2023-03-24T04:56:47;5.53;;;1.40;;
64244;SDS011;50584;29.058;-110.966;2023-03-24T04:59:14;3.15;;;1.40;;
64244;SDS011;50584;29.058;-110.966;2023-03-24T05:01:40;4.80;;;1.50;;
64244;SDS011;50584;29.058;-110.966;2023-03-24T05:04:06;7.70;;;1.20;;
64244;SDS011;50584;29.058;-110.966;2023-03-24T05:06:32;3.33;;;0.93;;
64244;SDS011;50584;29.058;-110.966;2023-03-24T05:08:58;1.00;;;0.90;;
64244;SDS011;50584;29.058;-110.966;2023-03-24T05:11:25;5.18;;;1.00;;
64244;SDS011;50584;29.058;-110.966;2023-03-24T05:13:51;1.70;;;0.85;;
64244;SDS011;50584;29.058;-110.966;2023-03-24T05:16:17;4.50;;;1.00;;
64244;SDS011;50584;29.058;-110.966;2023-03-24T05:18:43;0.88;;;0.88;;
64244;SDS011;50584;29.058;-110.966;2023-03-24T05:21:09;4.40;;;1.00;;
64244;SDS011;50584;29.058;-110.966;2023-03-24T05:23:35;3.38;;;0.70;;
64244;SDS011;50584;29.058;-110.966;2023-03-24T05:26:01;2.63;;;0.80;;
64244;SDS011;50584;29.058;-110.966;2023-03-24T05:28:26;2.90;;;1.15;;
64244;SDS011;50584;29.058;-110.966;2023-03-24T05:30:52;0.80;;;0.80;;
64244;SDS011;50584;29.058;-110.966;2023-03-24T05:33:18;4.13;;;0.95;;
64244;SDS011;50584;29.058;-110.966;2023-03-24T05:35:44;1.77;;;1.40;;
64244;SDS011;50584;29.058;-110.966;2023-03-24T05:38:10;1.45;;;1.10;;
64244;SDS011;50584;29.058;-110.966;2023-03-24T05:40:36;4.85;;;1.38;;
64244;SDS011;50584;29.058;-110.966;2023-03-24T05:43:02;1.15;;;1.05;;
64244;SDS011;50584;29.058;-110.966;2023-03-24T05:45:28;1.35;;;1.25;;
64244;SDS011;50584;29.058;-110.966;2023-03-24T05:47:54;6.00;;;1.50;;
64244;SDS011;50584;29.058;-110.966;2023-03-24T05:50:20;4.82;;;1.55;;
64244;SDS011;50584;29.058;-110.966;2023-03-24T05:52:47;6.55;;;1.40;;
64244;SDS011;50584;29.058;-110.966;2023-03-24T05:55:13;2.22;;;1.50;;
64244;SDS011;50584;29.058;-110.966;2023-03-24T05:57:40;6.68;;;1.10;;
64244;SDS011;50584;29.058;-110.966;2023-03-24T06:00:06;11.30;;;1.52;;
64244;SDS011;50584;29.058;-110.966;2023-03-24T06:02:34;3.55;;;1.40;;
64244;SDS011;50584;29.058;-110.966;2023-03-24T06:05:00;4.78;;;1.40;;
64244;SDS011;50584;29.058;-110.966;2023-03-24T06:07:26;4.63;;;1.40;;
64244;SDS011;50584;29.058;-110.966;2023-03-24T06:09:55;4.35;;;1.40;;
64244;SDS011;50584;29.058;-110.966;2023-03-24T06:12:22;4.63;;;1.40;;
64244;SDS011;50584;29.058;-110.966;2023-03-24T06:14:48;4.82;;;1.80;;
64244;SDS011;50584;29.058;-110.966;2023-03-24T06:17:14;1.27;;;1.10;;
64244;SDS011;50584;29.058;-110.966;2023-03-24T06:19:42;2.38;;;1.02;;
64244;SDS011;50584;29.058;-110.966;2023-03-24T06:22:16;2.10;;;1.10;;
64244;SDS011;50584;29.058;-110.966;2023-03-24T06:24:43;1.95;;;1.63;;
64244;SDS011;50584;29.058;-110.966;2023-03-24T06:27:09;3.78;;;1.75;;
64244;SDS011;50584;29.058;-110.966;2023-03-24T06:29:35;4.53;;;2.33;;
64244;SDS011;50584;29.058;-110.966;2023-03-24T06:32:01;3.35;;;2.47;;
64244;SDS011;50584;29.058;-110.966;2023-03-24T06:34:27;5.50;;;1.98;;
64244;SDS011;50584;29.058;-110.966;2023-03-24T06:36:54;8.98;;;2.58;;
64244;SDS011;50584;29.058;-110.966;2023-03-24T06:39:20;6.43;;;2.55;;
64244;SDS011;50584;29.058;-110.966;2023-03-24T06:41:48;3.22;;;2.55;;
64244;SDS011;50584;29.058;-110.966;2023-03-24T06:44:13;4.50;;;3.42;;
64244;SDS011;50584;29.058;-110.966;2023-03-24T06:46:39;7.03;;;2.53;;
64244;SDS011;50584;29.058;-110.966;2023-03-24T06:49:06;4.30;;;2.22;;
64244;SDS011;50584;29.058;-110.966;2023-03-24T06:51:31;7.97;;;2.30;;
64244;SDS011;50584;29.058;-110.966;2023-03-24T06:53:57;3.83;;;3.00;;
64244;SDS011;50584;29.058;-110.966;2023-03-24T06:56:23;8.23;;;2.60;;
64244;SDS011;50584;29.058;-110.966;2023-03-24T06:58:49;3.85;;;2.70;;
64244;SDS011;50584;29.058;-110.966;2023-03-24T07:01:16;6.72;;;2.50;;
64244;SDS011;50584;29.058;-110.966;2023-03-24T07:03:41;5.25;;;2.33;;
64244;SDS011;50584;29.058;-110.966;2023-03-24T07:06:08;4.40;;;2.85;;
64244;SDS011;50584;29.058;-110.966;2023-03-24T07:08:34;4.13;;;2.47;;
64244;SDS011;50584;29.058;-110.966;2023-03-24T07:11:00;11.35;;;3.17;;
64244;SDS011;50584;29.058;-110.966;2023-03-24T07:13:26;9.38;;;3.80;;
64244;SDS011;50584;29.058;-110.966;2023-03-24T07:15:52;11.65;;;3.47;;
64244;SDS011;50584;29.058;-110.966;2023-03-24T07:18:18;7.78;;;2.70;;
64244;SDS011;50584;29.058;-110.966;2023-03-24T07:20:44;4.05;;;2.10;;
64244;SDS011;50584;29.058;-110.966;2023-03-24T07:23:10;6.75;;;2.42;;
64244;SDS011;50584;29.058;-110.966;2023-03-24T07:25:38;4.57;;;2.10;;
64244;SDS011;50584;29.058;-110.966;2023-03-24T07:28:04;5.03;;;2.08;;
64244;SDS011;50584;29.058;-110.966;2023-03-24T07:30:30;7.10;;;1.98;;
64244;SDS011;50584;29.058;-110.966;2023-03-24T07:32:56;1.40;;;1.30;;
64244;SDS011;50584;29.058;-110.966;2023-03-24T07:35:22;2.40;;;1.60;;
64244;SDS011;50584;29.058;-110.966;2023-03-24T07:37:48;4.35;;;1.63;;
64244;SDS011;50584;29.058;-110.966;2023-03-24T07:40:14;4.22;;;1.40;;
64244;SDS011;50584;29.058;-110.966;2023-03-24T07:42:41;4.35;;;1.73;;
64244;SDS011;50584;29.058;-110.966;2023-03-24T07:45:09;3.13;;;2.35;;
64244;SDS011;50584;29.058;-110.966;2023-03-24T07:47:36;6.82;;;2.20;;
64244;SDS011;50584;29.058;-110.966;2023-03-24T07:50:03;5.22;;;2.25;;
64244;SDS011;50584;29.058;-110.966;2023-03-24T07:52:37;5.18;;;1.80;;
64244;SDS011;50584;29.058;-110.966;2023-03-24T07:55:08;4.07;;;1.73;;
64244;SDS011;50584;29.058;-110.966;2023-03-24T07:57:36;3.67;;;1.70;;
64244;SDS011;50584;29.058;-110.966;2023-03-24T08:00:03;4.30;;;1.95;;
64244;SDS011;50584;29.058;-110.966;2023-03-24T08:02:34;4.65;;;1.92;;
64244;SDS011;50584;29.058;-110.966;2023-03-24T08:05:00;2.97;;;1.90;;
64244;SDS011;50584;29.058;-110.966;2023-03-24T08:07:26;3.00;;;1.77;;
64244;SDS011;50584;29.058;-110.966;2023-03-24T08:09:52;2.20;;;1.80;;
64244;SDS011;50584;29.058;-110.966;2023-03-24T08:12:18;4.35;;;1.70;;
64244;SDS011;50584;29.058;-110.966;2023-03-24T08:14:44;1.40;;;1.30;;
64244;SDS011;50584;29.058;-110.966;2023-03-24T08:17:09;2.75;;;1.40;;
64244;SDS011;50584;29.058;-110.966;2023-03-24T08:19:35;2.15;;;1.50;;
64244;SDS011;50584;29.058;-110.966;2023-03-24T08:22:01;6.03;;;2.15;;
64244;SDS011;50584;29.058;-110.966;2023-03-24T08:24:27;1.67;;;1.48;;
64244;SDS011;50584;29.058;-110.966;2023-03-24T08:26:53;2.38;;;1.98;;
64244;SDS011;50584;29.058;-110.966;2023-03-24T08:29:23;5.95;;;1.77;;
64244;SDS011;50584;29.058;-110.966;2023-03-24T08:31:48;2.15;;;1.70;;
64244;SDS011;50584;29.058;-110.966;2023-03-24T08:34:14;3.25;;;1.70;;
64244;SDS011;50584;29.058;-110.966;2023-03-24T08:36:40;1.50;;;1.40;;
64244;SDS011;50584;29.058;-110.966;2023-03-24T08:39:06;3.13;;;2.20;;
64244;SDS011;50584;29.058;-110.966;2023-03-24T08:41:33;4.93;;;1.98;;
64244;SDS011;50584;29.058;-110.966;2023-03-24T08:44:00;3.38;;;1.80;;
64244;SDS011;50584;29.058;-110.966;2023-03-24T08:46:28;3.53;;;1.60;;
64244;SDS011;50584;29.058;-110.966;2023-03-24T08:48:54;2.58;;;1.60;;
64244;SDS011;50584;29.058;-110.966;2023-03-24T08:51:21;2.40;;;1.90;;
64244;SDS011;50584;29.058;-110.966;2023-03-24T08:53:47;5.53;;;2.10;;
64244;SDS011;50584;29.058;-110.966;2023-03-24T08:56:15;4.80;;;2.45;;
64244;SDS011;50584;29.058;-110.966;2023-03-24T08:58:41;2.90;;;1.88;;
64244;SDS011;50584;29.058;-110.966;2023-03-24T09:01:07;2.15;;;1.80;;
64244;SDS011;50584;29.058;-110.966;2023-03-24T09:03:33;4.18;;;1.75;;
64244;SDS011;50584;29.058;-110.966;2023-03-24T09:06:00;7.07;;;1.90;;
64244;SDS011;50584;29.058;-110.966;2023-03-24T09:08:26;2.03;;;1.45;;
64244;SDS011;50584;29.058;-110.966;2023-03-24T09:10:51;2.22;;;1.75;;
64244;SDS011;50584;29.058;-110.966;2023-03-24T09:13:17;8.57;;;1.50;;
64244;SDS011;50584;29.058;-110.966;2023-03-24T09:15:48;6.40;;;1.52;;
64244;SDS011;50584;29.058;-110.966;2023-03-24T09:18:14;1.38;;;1.27;;
64244;SDS011;50584;29.058;-110.966;2023-03-24T09:20:40;1.40;;;1.10;;
64244;SDS011;50584;29.058;-110.966;2023-03-24T09:23:06;1.98;;;1.20;;
64244;SDS011;50584;29.058;-110.966;2023-03-24T09:25:32;1.80;;;0.90;;
64244;SDS011;50584;29.058;-110.966;2023-03-24T09:27:57;3.60;;;0.77;;
64244;SDS011;50584;29.058;-110.966;2023-03-24T09:30:23;0.80;;;0.80;;
64244;SDS011;50584;29.058;-110.966;2023-03-24T09:32:49;2.90;;;1.00;;
64244;SDS011;50584;29.058;-110.966;2023-03-24T09:35:15;4.78;;;1.00;;
64244;SDS011;50584;29.058;-110.966;2023-03-24T09:37:41;1.95;;;1.20;;
64244;SDS011;50584;29.058;-110.966;2023-03-24T09:40:11;2.15;;;1.58;;
64244;SDS011;50584;29.058;-110.966;2023-03-24T09:42:39;2.92;;;1.00;;
64244;SDS011;50584;29.058;-110.966;2023-03-24T09:45:09;1.30;;;1.10;;
64244;SDS011;50584;29.058;-110.966;2023-03-24T09:47:41;10.10;;;1.10;;
64244;SDS011;50584;29.058;-110.966;2023-03-24T09:50:15;1.25;;;1.10;;
64244;SDS011;50584;29.058;-110.966;2023-03-24T09:52:42;1.13;;;1.00;;
64244;SDS011;50584;29.058;-110.966;2023-03-24T09:55:10;4.30;;;1.23;;
64244;SDS011;50584;29.058;-110.966;2023-03-24T09:57:39;6.93;;;1.48;;
64244;SDS011;50584;29.058;-110.966;2023-03-24T10:02:35;2.08;;;1.33;;
64244;SDS011;50584;29.058;-110.966;2023-03-24T10:05:00;2.15;;;1.52;;
64244;SDS011;50584;29.058;-110.966;2023-03-24T10:09:56;2.28;;;1.10;;
64244;SDS011;50584;29.058;-110.966;2023-03-24T10:15:03;2.00;;;1.23;;
64244;SDS011;50584;29.058;-110.966;2023-03-24T10:23:03;8.90;;;1.92;;
64244;SDS011;50584;29.058;-110.966;2023-03-24T10:30:25;3.50;;;1.30;;
64244;SDS011;50584;29.058;-110.966;2023-03-24T10:32:53;2.55;;;1.23;;
64244;SDS011;50584;29.058;-110.966;2023-03-24T10:35:29;1.98;;;1.00;;
64244;SDS011;50584;29.058;-110.966;2023-03-24T10:37:57;4.05;;;1.33;;
64244;SDS011;50584;29.058;-110.966;2023-03-24T10:40:30;1.75;;;1.30;;
64244;SDS011;50584;29.058;-110.966;2023-03-24T10:42:57;3.55;;;1.00;;
64244;SDS011;50584;29.058;-110.966;2023-03-24T10:45:26;6.10;;;1.25;;
64244;SDS011;50584;29.058;-110.966;2023-03-24T10:47:53;1.10;;;1.10;;
64244;SDS011;50584;29.058;-110.966;2023-03-24T10:50:22;5.30;;;1.40;;
64244;SDS011;50584;29.058;-110.966;2023-03-24T10:52:48;4.07;;;1.52;;
64244;SDS011;50584;29.058;-110.966;2023-03-24T10:55:19;3.25;;;1.33;;
64244;SDS011;50584;29.058;-110.966;2023-03-24T10:57:48;5.35;;;1.08;;
64244;SDS011;50584;29.058;-110.966;2023-03-24T11:00:16;1.00;;;1.00;;
64244;SDS011;50584;29.058;-110.966;2023-03-24T11:02:55;3.25;;;1.25;;
64244;SDS011;50584;29.058;-110.966;2023-03-24T11:05:21;6.35;;;1.00;;
64244;SDS011;50584;29.058;-110.966;2023-03-24T11:07:53;3.60;;;0.90;;
64244;SDS011;50584;29.058;-110.966;2023-03-24T11:10:24;4.72;;;1.75;;
64244;SDS011;50584;29.058;-110.966;2023-03-24T11:15:22;1.60;;;1.50;;
64244;SDS011;50584;29.058;-110.966;2023-03-24T11:17:58;2.97;;;1.48;;
64244;SDS011;50584;29.058;-110.966;2023-03-24T11:20:39;3.67;;;1.40;;
64244;SDS011;50584;29.058;-110.966;2023-03-24T11:23:07;4.82;;;1.98;;
64244;SDS011;50584;29.058;-110.966;2023-03-24T11:25:38;5.63;;;1.85;;
64244;SDS011;50584;29.058;-110.966;2023-03-24T11:28:05;4.43;;;2.37;;
64244;SDS011;50584;29.058;-110.966;2023-03-24T11:30:44;4.40;;;2.28;;
64244;SDS011;50584;29.058;-110.966;2023-03-24T11:35:50;5.68;;;2.65;;
64244;SDS011;50584;29.058;-110.966;2023-03-24T11:38:17;7.13;;;2.03;;
64244;SDS011;50584;29.058;-110.966;2023-03-24T11:40:53;9.45;;;2.30;;
64244;SDS011;50584;29.058;-110.966;2023-03-24T11:43:22;8.35;;;2.20;;
64244;SDS011;50584;29.058;-110.966;2023-03-24T11:48:34;8.73;;;2.42;;
64244;SDS011;50584;29.058;-110.966;2023-03-24T11:51:04;3.90;;;2.75;;
64244;SDS011;50584;29.058;-110.966;2023-03-24T11:53:39;7.93;;;2.13;;
64244;SDS011;50584;29.058;-110.966;2023-03-24T11:56:22;3.80;;;2.83;;
64244;SDS011;50584;29.058;-110.966;2023-03-24T11:58:55;5.20;;;3.13;;
64244;SDS011;50584;29.058;-110.966;2023-03-24T12:01:27;9.07;;;3.22;;
64244;SDS011;50584;29.058;-110.966;2023-03-24T12:04:03;10.95;;;3.75;;
64244;SDS011;50584;29.058;-110.966;2023-03-24T12:14:22;4.07;;;3.40;;
64244;SDS011;50584;29.058;-110.966;2023-03-24T12:19:26;6.45;;;2.95;;
64244;SDS011;50584;29.058;-110.966;2023-03-24T12:24:27;5.85;;;2.53;;
64244;SDS011;50584;29.058;-110.966;2023-03-24T12:26:59;12.43;;;2.80;;
64244;SDS011;50584;29.058;-110.966;2023-03-24T12:39:59;4.93;;;2.20;;
64244;SDS011;50584;29.058;-110.966;2023-03-24T12:55:11;6.75;;;2.38;;
64244;SDS011;50584;29.058;-110.966;2023-03-24T12:57:53;8.73;;;2.30;;
64244;SDS011;50584;29.058;-110.966;2023-03-24T13:00:22;5.30;;;2.15;;
64244;SDS011;50584;29.058;-110.966;2023-03-24T13:02:51;5.65;;;2.65;;
64244;SDS011;50584;29.058;-110.966;2023-03-24T13:05:19;1.88;;;1.30;;
64244;SDS011;50584;29.058;-110.966;2023-03-24T13:07:45;6.88;;;1.60;;
64244;SDS011;50584;29.058;-110.966;2023-03-24T13:10:22;1.95;;;1.67;;
64244;SDS011;50584;29.058;-110.966;2023-03-24T13:13:05;1.88;;;1.40;;
64244;SDS011;50584;29.058;-110.966;2023-03-24T13:15:33;8.13;;;1.92;;
64244;SDS011;50584;29.058;-110.966;2023-03-24T13:23:08;2.22;;;1.70;;
64244;SDS011;50584;29.058;-110.966;2023-03-24T13:25:48;8.73;;;1.60;;
64244;SDS011;50584;29.058;-110.966;2023-03-24T13:28:19;57.90;;;27.52;;
64244;SDS011;50584;29.058;-110.966;2023-03-24T13:30:47;74.00;;;30.90;;
64244;SDS011;50584;29.058;-110.966;2023-03-24T13:33:15;58.25;;;24.30;;
64244;SDS011;50584;29.058;-110.966;2023-03-24T13:40:55;19.23;;;8.07;;
64244;SDS011;50584;29.058;-110.966;2023-03-24T13:43:22;10.98;;;5.10;;
64244;SDS011;50584;29.058;-110.966;2023-03-24T13:45:51;8.13;;;3.20;;
64244;SDS011;50584;29.058;-110.966;2023-03-24T13:48:43;9.55;;;5.32;;
64244;SDS011;50584;29.058;-110.966;2023-03-24T13:53:54;6.90;;;3.35;;
64244;SDS011;50584;29.058;-110.966;2023-03-24T13:56:22;10.63;;;5.13;;
64244;SDS011;50584;29.058;-110.966;2023-03-24T14:01:37;10.95;;;7.07;;
64244;SDS011;50584;29.058;-110.966;2023-03-24T14:06:45;11.65;;;7.22;;
64244;SDS011;50584;29.058;-110.966;2023-03-24T14:09:19;8.48;;;4.88;;
64244;SDS011;50584;29.058;-110.966;2023-03-24T14:12:06;16.02;;;4.60;;
64244;SDS011;50584;29.058;-110.966;2023-03-24T14:14:35;13.45;;;3.85;;
64244;SDS011;50584;29.058;-110.966;2023-03-24T14:17:17;13.60;;;3.28;;
64244;SDS011;50584;29.058;-110.966;2023-03-24T14:19:44;6.00;;;2.53;;
64244;SDS011;50584;29.058;-110.966;2023-03-24T14:22:34;3.83;;;2.92;;
64244;SDS011;50584;29.058;-110.966;2023-03-24T14:25:05;7.80;;;2.08;;
64244;SDS011;50584;29.058;-110.966;2023-03-24T14:27:45;12.18;;;3.65;;
64244;SDS011;50584;29.058;-110.966;2023-03-24T14:30:17;7.95;;;2.60;;
64244;SDS011;50584;29.058;-110.966;2023-03-24T14:32:45;5.80;;;2.42;;
64244;SDS011;50584;29.058;-110.966;2023-03-24T14:35:22;8.32;;;3.58;;
64244;SDS011;50584;29.058;-110.966;2023-03-24T14:37:58;10.90;;;3.15;;
64244;SDS011;50584;29.058;-110.966;2023-03-24T14:40:44;7.72;;;3.67;;
64244;SDS011;50584;29.058;-110.966;2023-03-24T14:43:24;17.17;;;3.88;;
64244;SDS011;50584;29.058;-110.966;2023-03-24T14:48:34;7.95;;;1.98;;
64244;SDS011;50584;29.058;-110.966;2023-03-24T14:51:05;7.55;;;2.80;;
64244;SDS011;50584;29.058;-110.966;2023-03-24T14:53:32;9.57;;;2.47;;
64244;SDS011;50584;29.058;-110.966;2023-03-24T14:56:00;17.42;;;3.88;;
64244;SDS011;50584;29.058;-110.966;2023-03-24T14:58:29;5.18;;;2.30;;
64244;SDS011;50584;29.058;-110.966;2023-03-24T15:00:58;4.32;;;2.47;;
64244;SDS011;50584;29.058;-110.966;2023-03-24T15:03:35;13.68;;;2.38;;
64244;SDS011;50584;29.058;-110.966;2023-03-24T15:06:24;12.00;;;2.97;;
64244;SDS011;50584;29.058;-110.966;2023-03-24T15:08:53;10.18;;;1.75;;
64244;SDS011;50584;29.058;-110.966;2023-03-24T15:11:24;12.38;;;2.33;;
64244;SDS011;50584;29.058;-110.966;2023-03-24T15:13:52;6.25;;;1.70;;
64244;SDS011;50584;29.058;-110.966;2023-03-24T15:16:27;12.13;;;3.13;;
64244;SDS011;50584;29.058;-110.966;2023-03-24T15:21:27;6.53;;;2.47;;
64244;SDS011;50584;29.058;-110.966;2023-03-24T15:23:54;17.88;;;2.35;;
64244;SDS011;50584;29.058;-110.966;2023-03-24T15:26:21;12.55;;;1.70;;
64244;SDS011;50584;29.058;-110.966;2023-03-24T15:28:57;9.25;;;2.38;;
64244;SDS011;50584;29.058;-110.966;2023-03-24T15:31:24;10.35;;;2.75;;
64244;SDS011;50584;29.058;-110.966;2023-03-24T15:34:04;15.70;;;2.50;;
64244;SDS011;50584;29.058;-110.966;2023-03-24T15:36:37;5.63;;;1.65;;
64244;SDS011;50584;29.058;-110.966;2023-03-24T15:39:15;5.97;;;2.20;;
64244;SDS011;50584;29.058;-110.966;2023-03-24T15:41:41;7.28;;;2.05;;
64244;SDS011;50584;29.058;-110.966;2023-03-24T15:44:08;3.03;;;2.03;;
64244;SDS011;50584;29.058;-110.966;2023-03-24T15:46:33;4.80;;;1.80;;
64244;SDS011;50584;29.058;-110.966;2023-03-24T15:48:59;7.70;;;2.33;;
64244;SDS011;50584;29.058;-110.966;2023-03-24T15:51:44;7.80;;;2.78;;
64244;SDS011;50584;29.058;-110.966;2023-03-24T15:54:20;14.27;;;2.30;;
64244;SDS011;50584;29.058;-110.966;2023-03-24T15:57:00;14.65;;;3.47;;
64244;SDS011;50584;29.058;-110.966;2023-03-24T15:59:33;9.00;;;3.55;;
64244;SDS011;50584;29.058;-110.966;2023-03-24T16:02:00;5.20;;;2.67;;
64244;SDS011;50584;29.058;-110.966;2023-03-24T16:04:27;8.88;;;2.92;;
64244;SDS011;50584;29.058;-110.966;2023-03-24T16:06:53;8.88;;;1.83;;
64244;SDS011;50584;29.058;-110.966;2023-03-24T16:09:22;4.78;;;1.98;;
64244;SDS011;50584;29.058;-110.966;2023-03-24T16:11:51;11.93;;;1.98;;
64244;SDS011;50584;29.058;-110.966;2023-03-24T16:14:21;5.30;;;1.95;;
64244;SDS011;50584;29.058;-110.966;2023-03-24T16:16:48;3.60;;;1.65;;
64244;SDS011;50584;29.058;-110.966;2023-03-24T16:19:14;7.70;;;1.70;;
64244;SDS011;50584;29.058;-110.966;2023-03-24T16:21:40;9.65;;;2.17;;
64244;SDS011;50584;29.058;-110.966;2023-03-24T16:24:05;13.75;;;2.30;;
64244;SDS011;50584;29.058;-110.966;2023-03-24T16:26:31;8.07;;;2.20;;
64244;SDS011;50584;29.058;-110.966;2023-03-24T16:31:41;2.17;;;1.77;;
64244;SDS011;50584;29.058;-110.966;2023-03-24T16:34:07;9.27;;;1.83;;
64244;SDS011;50584;29.058;-110.966;2023-03-24T16:36:33;7.65;;;1.70;;
64244;SDS011;50584;29.058;-110.966;2023-03-24T16:38:59;12.00;;;2.03;;
64244;SDS011;50584;29.058;-110.966;2023-03-24T16:41:25;5.55;;;2.10;;
64244;SDS011;50584;29.058;-110.966;2023-03-24T16:43:52;9.65;;;1.85;;
64244;SDS011;50584;29.058;-110.966;2023-03-24T16:46:28;2.35;;;1.30;;